Clarksboro, New Jersey
Current Conditions -  °F | °C
As of 2:54 AM on Thursday 18 Dec 2014 (Local Time) from KPHL Reporting Station
Few Clouds Few Clouds  
Wind Chill: 28°   Ceiling: Unl
Heat Index: 37°   Visibility: 10mi
Dew Point: 22°   Wind: 14mph
Humidity: 54%   Direction: 290°WNW
Pressure: 30.02"   Gusts: NA
Location:  39.8°N, 75.22°W
Report Text: KPHL 180754Z 29012KT 10SM FEW060 03/M06 A3002 RMK AO2 SLP164 T00281056
Loading
Personal Weather Stations






























Interactive Weather Map New forecast layout! Learn more

10-Day Weather Forecast

Advertisements
Track Severe Weather on mobile